Huvudsida
METAR-TAF:

METAR-TAF

Flygplatser :

Stokmarknes flygplats. Skagen

Stokmarknes, Norge

latitud: 68-35N, longitud: 015-01E, höjd: 0 m

Aktuellt väderrapport

Denna rapport gjordes för 12 timmar och 33 minuter sedan, klockan 21:20 UTC
Vind 16 kt från syd
Temperatur 5°C
Fuktighet 81%
Tryck 1027 hPa
Sikt 10 km eller mer
Få moln på en höjd av 1500 ft
Spridda moln på en höjd av 3500 ft
Brutna moln på en höjd av 5000 ft

METAR: ENSK 142120Z 19016KT 9999 FEW015 SCT035 BKN050 05/02 Q1027

Tid: 10:53 (09:53 UTC)


TAF: saknas

Aktuella väderrapporter och prognoser från 4000 flygplatser (METAR- och TAF-rapporter).

De tillgängliga stationerna syns som gula och röda prickar på kartan.

För musen över prickarna för att se namnen på stationerna.

Klicka sedan för att få väderrapporter och prognoser.

För att ändra kartan: Klicka på de gröna knapparna med ett svart kors på för att zooma in; den gröna knappen med ett streck på för att zooma ut; eller på de gröna pilarna för angränsande kartor.


METAR-TAF: